Station Historical Data
Daily Summary for May 31, 2012 Units:  English    Metric   Both
« Previous Day
Next Day »
Daily Weekly Monthly Yearly Custom
  High: Low: Average:
Temperature: 85.8 °F 65.0 °F 73.8 °F
Dew Point: 69.3 °F 61.2 °F 64.7 °F
Humidity: 92% 50% 75%
Wind Speed: 15.0mph 0.0mph 4.3mph
Wind Gust: 20.0mph - -
Wind- - SSE
Pressure: 29.83 in 29.65 in -
Precipitation: 0.00 in    
Historical Graphs
 
 
Tabular Data for May 31, 2012
Time Temperature Dew Point Pressure Wind Wind Speed Wind Gust Humidity Rainfall Rate (Hourly) Conditions
00:00 71.8 °F 64.9 °F 29.79 in NE 3.0 mph 4.0 mph 79% 0.00 in
00:01 71.8 °F 64.9 °F 29.79 in NNE 2.0 mph 4.0 mph 79% 0.00 in
00:06 71.7 °F 64.8 °F 29.80 in NNE 4.0 mph 4.0 mph 79% 0.00 in
00:11 71.6 °F 64.8 °F 29.80 in NNE 2.0 mph 4.0 mph 79% 0.00 in
00:12 71.6 °F 65.1 °F 29.80 in NNE 2.0 mph 3.0 mph 80% 0.00 in
00:17 71.3 °F 64.8 °F 29.80 in NE 2.0 mph 2.0 mph 80% 0.00 in
00:22 71.1 °F 65.0 °F 29.80 in NE 2.0 mph 3.0 mph 81% 0.00 in
00:27 71.0 °F 64.9 °F 29.81 in NNE 1.0 mph 4.0 mph 81% 0.00 in
00:32 71.1 °F 65.0 °F 29.81 in Calm   2.0 mph 81% 0.00 in
00:37 70.5 °F 64.8 °F 29.81 in SSW 2.0 mph 3.0 mph 82% 0.00 in
00:42 69.7 °F 64.7 °F 29.81 in South 2.0 mph 4.0 mph 84% 0.00 in
00:47 69.5 °F 64.8 °F 29.81 in NNE 2.0 mph 2.0 mph 85% 0.00 in
00:52 69.4 °F 64.7 °F 29.81 in NNE 1.0 mph 3.0 mph 85% 0.00 in
00:57 69.0 °F 64.6 °F 29.81 in Calm   1.0 mph 86% 0.00 in
01:02 68.8 °F 64.8 °F 29.81 in SSE 3.0 mph 3.0 mph 87% 0.00 in
01:07 68.4 °F 64.4 °F 29.81 in SE 1.0 mph 3.0 mph 87% 0.00 in
01:12 68.3 °F 64.6 °F 29.80 in Calm   1.0 mph 88% 0.00 in
01:17 68.2 °F 64.8 °F 29.80 in SW 1.0 mph 2.0 mph 89% 0.00 in
01:22 68.0 °F 64.3 °F 29.81 in West 2.0 mph 2.0 mph 88% 0.00 in
01:27 67.8 °F 64.8 °F 29.81 in West 2.0 mph 4.0 mph 90% 0.00 in
01:32 67.9 °F 64.5 °F 29.82 in SW 2.0 mph 5.0 mph 89% 0.00 in
01:37 67.9 °F 64.5 °F 29.81 in Calm   2.0 mph 89% 0.00 in
01:42 67.6 °F 64.2 °F 29.81 in Calm     89% 0.00 in
01:47 67.3 °F 64.0 °F 29.81 in Calm   1.0 mph 89% 0.00 in
01:53 67.5 °F 64.2 °F 29.81 in SW 1.0 mph 1.0 mph 89% 0.00 in
01:58 67.4 °F 64.1 °F 29.82 in Calm   1.0 mph 89% 0.00 in
02:03 67.5 °F 64.5 °F 29.81 in WSW 3.0 mph 3.0 mph 90% 0.00 in
02:08 67.8 °F 64.4 °F 29.81 in NE 3.0 mph 3.0 mph 89% 0.00 in
02:13 67.6 °F 64.2 °F 29.81 in Calm   2.0 mph 89% 0.00 in
02:18 67.7 °F 64.3 °F 29.81 in East 1.0 mph 1.0 mph 89% 0.00 in
02:23 67.5 °F 64.2 °F 29.82 in Calm     89% 0.00 in
02:28 67.1 °F 63.8 °F 29.82 in Calm     89% 0.00 in
02:33 66.8 °F 63.8 °F 29.82 in East 1.0 mph 1.0 mph 90% 0.00 in
02:38 66.8 °F 64.1 °F 29.83 in North 2.0 mph 2.0 mph 91% 0.00 in
02:43 66.5 °F 63.8 °F 29.82 in Calm   2.0 mph 91% 0.00 in
02:48 66.6 °F 63.9 °F 29.82 in North 1.0 mph 1.0 mph 91% 0.00 in
02:53 66.8 °F 64.1 °F 29.82 in North 1.0 mph 1.0 mph 91% 0.00 in
02:58 67.1 °F 64.4 °F 29.82 in Calm     91% 0.00 in
03:03 67.3 °F 64.3 °F 29.82 in Calm     90% 0.00 in
03:08 67.3 °F 64.3 °F 29.81 in Calm   2.0 mph 90% 0.00 in
03:13 67.1 °F 64.4 °F 29.81 in Calm     91% 0.00 in
03:18 67.0 °F 64.3 °F 29.81 in Calm     91% 0.00 in
03:23 66.9 °F 64.2 °F 29.81 in Calm     91% 0.00 in
03:28 66.9 °F 64.2 °F 29.80 in Calm     91% 0.00 in
03:33 66.9 °F 64.2 °F 29.80 in Calm   1.0 mph 91% 0.00 in
03:38 67.0 °F 64.3 °F 29.80 in Calm     91% 0.00 in
03:43 67.4 °F 65.0 °F 29.79 in East 2.0 mph 2.0 mph 92% 0.00 in
03:48 67.7 °F 65.0 °F 29.79 in NNE 4.0 mph 4.0 mph 91% 0.00 in
03:53 67.7 °F 64.7 °F 29.79 in NNE 3.0 mph 4.0 mph 90% 0.00 in
03:58 67.8 °F 64.4 °F 29.78 in Calm   3.0 mph 89% 0.00 in
04:04 67.7 °F 64.7 °F 29.79 in NNW 1.0 mph 2.0 mph 90% 0.00 in
04:09 67.4 °F 64.7 °F 29.79 in Calm   1.0 mph 91% 0.00 in
04:14 67.3 °F 64.6 °F 29.79 in NNW 1.0 mph 1.0 mph 91% 0.00 in
04:19 67.3 °F 64.6 °F 29.79 in North 1.0 mph 1.0 mph 91% 0.00 in
04:24 67.3 °F 64.6 °F 29.79 in Calm   1.0 mph 91% 0.00 in
04:29 67.3 °F 64.3 °F 29.79 in Calm   1.0 mph 90% 0.00 in
04:34 67.2 °F 64.5 °F 29.78 in NNE 1.0 mph 1.0 mph 91% 0.00 in
04:39 67.2 °F 64.2 °F 29.78 in Calm   2.0 mph 90% 0.00 in
04:44 67.1 °F 64.1 °F 29.79 in NNE 1.0 mph 1.0 mph 90% 0.00 in
04:49 67.0 °F 64.3 °F 29.78 in North 2.0 mph 2.0 mph 91% 0.00 in
04:54 67.1 °F 64.1 °F 29.78 in Calm   1.0 mph 90% 0.00 in
04:59 67.2 °F 64.2 °F 29.78 in Calm     90% 0.00 in
05:04 67.3 °F 64.3 °F 29.78 in NE 1.0 mph 2.0 mph 90% 0.00 in
05:09 67.5 °F 64.2 °F 29.78 in Calm   1.0 mph 89% 0.00 in
05:14 67.4 °F 64.1 °F 29.78 in NNE 1.0 mph 1.0 mph 89% 0.00 in
05:19 67.0 °F 64.0 °F 29.78 in Calm     90% 0.00 in
05:24 66.7 °F 63.7 °F 29.77 in Calm     90% 0.00 in
05:29 66.6 °F 63.9 °F 29.77 in Calm     91% 0.00 in
05:34 66.4 °F 63.7 °F 29.77 in Calm     91% 0.00 in
05:40 66.2 °F 63.8 °F 29.77 in Calm     92% 0.00 in
05:45 66.0 °F 63.6 °F 29.77 in Calm   2.0 mph 92% 0.00 in
05:50 65.8 °F 63.4 °F 29.76 in NNE 2.0 mph 3.0 mph 92% 0.00 in
05:55 65.5 °F 63.1 °F 29.77 in Calm   1.0 mph 92% 0.00 in
06:00 65.4 °F 63.0 °F 29.76 in NNE 2.0 mph 3.0 mph 92% 0.00 in
06:05 65.4 °F 63.0 °F 29.76 in NNE 2.0 mph 3.0 mph 92% 0.00 in
06:10 65.5 °F 63.1 °F 29.76 in NE 1.0 mph 3.0 mph 92% 0.00 in
06:15 65.5 °F 63.1 °F 29.76 in North 1.0 mph 2.0 mph 92% 0.00 in
06:20 65.5 °F 63.1 °F 29.77 in Calm   1.0 mph 92% 0.00 in
06:25 65.4 °F 63.0 °F 29.77 in North 1.0 mph 1.0 mph 92% 0.00 in
06:30 65.4 °F 63.0 °F 29.77 in Calm     92% 0.00 in
06:35 65.3 °F 62.9 °F 29.77 in NNW 1.0 mph 1.0 mph 92% 0.00 in
06:40 65.3 °F 62.9 °F 29.77 in Calm   1.0 mph 92% 0.00 in
06:45 65.1 °F 62.7 °F 29.77 in Calm   1.0 mph 92% 0.00 in
06:50 65.0 °F 62.6 °F 29.77 in East 1.0 mph 1.0 mph 92% 0.00 in
06:51 65.1 °F 62.7 °F 29.77 in Calm   1.0 mph 92% 0.00 in
06:56 65.2 °F 62.8 °F 29.78 in Calm   1.0 mph 92% 0.00 in
07:01 65.5 °F 63.1 °F 29.78 in East 1.0 mph 5.0 mph 92% 0.00 in
07:06 65.8 °F 63.1 °F 29.78 in ESE 1.0 mph 2.0 mph 91% 0.00 in
07:11 66.1 °F 63.4 °F 29.78 in ESE 2.0 mph 2.0 mph 91% 0.00 in
07:16 66.3 °F 63.6 °F 29.78 in East 3.0 mph 3.0 mph 91% 0.00 in
07:21 66.7 °F 64.0 °F 29.78 in Calm   2.0 mph 91% 0.00 in
07:26 67.3 °F 64.0 °F 29.77 in Calm   3.0 mph 89% 0.00 in
07:31 67.9 °F 64.2 °F 29.77 in ENE 2.0 mph 3.0 mph 88% 0.00 in
07:36 68.0 °F 64.0 °F 29.78 in East 2.0 mph 4.0 mph 87% 0.00 in
07:41 68.0 °F 64.0 °F 29.78 in East 2.0 mph 3.0 mph 87% 0.00 in
07:46 68.1 °F 64.1 °F 29.78 in Calm   2.0 mph 87% 0.00 in
07:51 68.4 °F 64.1 °F 29.78 in NE 1.0 mph 3.0 mph 86% 0.00 in
07:56 68.9 °F 64.6 °F 29.78 in Calm     86% 0.00 in
08:01 69.3 °F 64.3 °F 29.78 in NE 2.0 mph 3.0 mph 84% 0.00 in
08:06 69.0 °F 64.3 °F 29.78 in Calm   2.0 mph 85% 0.00 in
08:12 68.8 °F 64.1 °F 29.78 in East 2.0 mph 2.0 mph 85% 0.00 in
08:17 68.8 °F 64.4 °F 29.77 in Calm   2.0 mph 86% 0.00 in
08:22 69.4 °F 65.0 °F 29.78 in East 1.0 mph 1.0 mph 86% 0.00 in
08:27 70.1 °F 65.1 °F 29.78 in East 1.0 mph 3.0 mph 84% 0.00 in
08:32 70.8 °F 65.7 °F 29.78 in North 3.0 mph 3.0 mph 84% 0.00 in
08:37 71.1 °F 65.3 °F 29.78 in ENE 2.0 mph 3.0 mph 82% 0.00 in
08:42 71.4 °F 64.9 °F 29.77 in ENE 1.0 mph 4.0 mph 80% 0.00 in
08:47 71.4 °F 64.9 °F 29.77 in ENE 1.0 mph 2.0 mph 80% 0.00 in
08:52 71.0 °F 64.5 °F 29.78 in ENE 1.0 mph 3.0 mph 80% 0.00 in
08:57 70.8 °F 64.7 °F 29.78 in ESE 2.0 mph 2.0 mph 81% 0.00 in
09:02 71.1 °F 64.6 °F 29.78 in ESE 3.0 mph 3.0 mph 80% 0.00 in
09:07 71.1 °F 65.3 °F 29.78 in ESE 3.0 mph 4.0 mph 82% 0.00 in
09:12 71.2 °F 65.4 °F 29.79 in ESE 4.0 mph 5.0 mph 82% 0.00 in
09:17 71.6 °F 65.5 °F 29.79 in ESE 5.0 mph 9.0 mph 81% 0.00 in
09:22 71.8 °F 65.3 °F 29.79 in ESE 4.0 mph 7.0 mph 80% 0.00 in
09:27 72.4 °F 65.2 °F 29.79 in East 5.0 mph 7.0 mph 78% 0.00 in
09:32 73.0 °F 65.7 °F 29.79 in SE 8.0 mph 8.0 mph 78% 0.00 in
09:37 73.3 °F 66.0 °F 29.79 in ESE 7.0 mph 10.0 mph 78% 0.00 in
09:42 73.3 °F 65.7 °F 29.79 in SE 4.0 mph 8.0 mph 77% 0.00 in
09:47 73.7 °F 66.1 °F 29.80 in ESE 7.0 mph 8.0 mph 77% 0.00 in
09:52 73.2 °F 65.9 °F 29.79 in SSE 7.0 mph 7.0 mph 78% 0.00 in
09:57 72.9 °F 66.4 °F 29.79 in SSE 5.0 mph 6.0 mph 80% 0.00 in
10:02 73.6 °F 67.1 °F 29.79 in South 3.0 mph 6.0 mph 80% 0.00 in
10:07 73.9 °F 67.0 °F 29.79 in SSE 4.0 mph 8.0 mph 79% 0.00 in
10:12 74.4 °F 67.5 °F 29.79 in SSE 7.0 mph 9.0 mph 79% 0.00 in
10:17 74.7 °F 67.8 °F 29.79 in SSE 4.0 mph 8.0 mph 79% 0.00 in
10:22 75.0 °F 67.7 °F 29.79 in SSE 4.0 mph 6.0 mph 78% 0.00 in
10:28 75.2 °F 67.9 °F 29.79 in ESE 3.0 mph 10.0 mph 78% 0.00 in
10:33 75.8 °F 68.5 °F 29.79 in South 6.0 mph 7.0 mph 78% 0.00 in
10:38 76.2 °F 68.1 °F 29.79 in SSE 5.0 mph 6.0 mph 76% 0.00 in
10:43 76.4 °F 67.9 °F 29.79 in SE 5.0 mph 7.0 mph 75% 0.00 in
10:48 76.9 °F 68.0 °F 29.78 in South 4.0 mph 8.0 mph 74% 0.00 in
10:53 77.2 °F 68.3 °F 29.78 in ESE 5.0 mph 7.0 mph 74% 0.00 in
10:58 77.6 °F 68.7 °F 29.78 in SW 5.0 mph 7.0 mph 74% 0.00 in
11:03 77.8 °F 68.5 °F 29.78 in SSW 5.0 mph 7.0 mph 73% 0.00 in
11:08 78.4 °F 68.2 °F 29.78 in SE 3.0 mph 7.0 mph 71% 0.00 in
11:13 79.1 °F 68.1 °F 29.78 in South 2.0 mph 6.0 mph 69% 0.00 in
11:18 79.5 °F 69.3 °F 29.78 in SW 4.0 mph 6.0 mph 71% 0.00 in
11:23 79.8 °F 66.1 °F 29.78 in South 9.0 mph 11.0 mph 63% 0.00 in
11:28 79.9 °F 64.3 °F 29.78 in SSW 8.0 mph 11.0 mph 59% 0.00 in
11:33 80.0 °F 65.8 °F 29.78 in South 6.0 mph 8.0 mph 62% 0.00 in
11:38 80.3 °F 65.6 °F 29.78 in SW 10.0 mph 12.0 mph 61% 0.00 in
11:43 80.5 °F 64.9 °F 29.78 in SSW 5.0 mph 15.0 mph 59% 0.00 in
11:48 80.6 °F 64.0 °F 29.78 in South 9.0 mph 16.0 mph 57% 0.00 in
11:53 80.6 °F 65.0 °F 29.77 in SSE 9.0 mph 12.0 mph 59% 0.00 in
11:58 80.7 °F 64.1 °F 29.77 in SSW 9.0 mph 13.0 mph 57% 0.00 in
12:03 80.7 °F 65.1 °F 29.78 in SSW 8.0 mph 11.0 mph 59% 0.00 in
12:08 80.8 °F 65.2 °F 29.77 in SE 10.0 mph 14.0 mph 59% 0.00 in
12:13 81.0 °F 66.3 °F 29.78 in SE 9.0 mph 12.0 mph 61% 0.00 in
12:16 80.8 °F 65.2 °F 29.78 in SE 15.0 mph 15.0 mph 59% 0.00 in
12:21 80.7 °F 64.1 °F 29.78 in SE 15.0 mph 16.0 mph 57% 0.00 in
12:26 80.9 °F 65.2 °F 29.78 in South 10.0 mph 12.0 mph 59% 0.00 in
12:31 81.2 °F 66.5 °F 29.78 in South 9.0 mph 12.0 mph 61% 0.00 in
12:36 81.2 °F 64.0 °F 29.77 in South 7.0 mph 18.0 mph 56% 0.00 in
12:41 81.5 °F 64.8 °F 29.77 in SSE 11.0 mph 14.0 mph 57% 0.00 in
12:46 81.5 °F 64.3 °F 29.77 in SE 10.0 mph 13.0 mph 56% 0.00 in
12:51 81.7 °F 64.5 °F 29.77 in South 7.0 mph 11.0 mph 56% 0.00 in
12:56 81.8 °F 64.6 °F 29.77 in WSW 6.0 mph 12.0 mph 56% 0.00 in
13:01 81.7 °F 64.5 °F 29.76 in SE 14.0 mph 15.0 mph 56% 0.00 in
13:06 81.8 °F 65.1 °F 29.76 in SSE 10.0 mph 10.0 mph 57% 0.00 in
13:11 81.9 °F 65.2 °F 29.76 in SSE 15.0 mph 15.0 mph 57% 0.00 in
13:16 82.1 °F 65.4 °F 29.75 in South 4.0 mph 11.0 mph 57% 0.00 in
13:21 82.7 °F 65.9 °F 29.75 in South 10.0 mph 13.0 mph 57% 0.00 in
13:26 82.9 °F 65.6 °F 29.76 in SSE 12.0 mph 14.0 mph 56% 0.00 in
13:31 82.8 °F 67.0 °F 29.75 in South 8.0 mph 10.0 mph 59% 0.00 in
13:36 82.7 °F 65.4 °F 29.75 in SW 6.0 mph 11.0 mph 56% 0.00 in
13:41 83.0 °F 64.1 °F 29.75 in SSE 8.0 mph 12.0 mph 53% 0.00 in
13:46 83.0 °F 63.6 °F 29.75 in SE 11.0 mph 12.0 mph 52% 0.00 in
13:51 82.8 °F 63.9 °F 29.75 in SW 9.0 mph 10.0 mph 53% 0.00 in
13:56 83.3 °F 65.5 °F 29.74 in South 8.0 mph 10.0 mph 55% 0.00 in
14:01 83.3 °F 64.9 °F 29.75 in SSW 8.0 mph 9.0 mph 54% 0.00 in
14:06 83.7 °F 65.3 °F 29.74 in SW 11.0 mph 11.0 mph 54% 0.00 in
14:11 83.6 °F 66.3 °F 29.74 in SSW 3.0 mph 8.0 mph 56% 0.00 in
14:16 83.7 °F 66.9 °F 29.74 in SSE 4.0 mph 10.0 mph 57% 0.00 in
14:21 84.0 °F 66.1 °F 29.74 in SW 13.0 mph 13.0 mph 55% 0.00 in
14:26 83.8 °F 64.9 °F 29.74 in WSW 8.0 mph 8.0 mph 53% 0.00 in
14:31 83.9 °F 67.1 °F 29.73 in SW 4.0 mph 6.0 mph 57% 0.00 in
14:36 84.1 °F 65.1 °F 29.73 in SE 8.0 mph 12.0 mph 53% 0.00 in
14:42 84.3 °F 65.3 °F 29.73 in SW 6.0 mph 9.0 mph 53% 0.00 in
14:47 84.3 °F 67.4 °F 29.73 in South 4.0 mph 9.0 mph 57% 0.00 in
14:52 84.7 °F 66.2 °F 29.73 in SSW 5.0 mph 10.0 mph 54% 0.00 in
14:57 84.7 °F 66.2 °F 29.72 in SSE 12.0 mph 13.0 mph 54% 0.00 in
15:02 84.3 °F 64.8 °F 29.72 in SSE 11.0 mph 12.0 mph 52% 0.00 in
15:07 84.5 °F 66.1 °F 29.72 in South 8.0 mph 14.0 mph 54% 0.00 in
15:12 84.7 °F 66.2 °F 29.71 in South 4.0 mph 12.0 mph 54% 0.00 in
15:17 84.9 °F 66.4 °F 29.71 in SSE 10.0 mph 13.0 mph 54% 0.00 in
15:22 84.8 °F 64.7 °F 29.71 in SSW 6.0 mph 10.0 mph 51% 0.00 in
15:27 84.9 °F 64.8 °F 29.70 in SSW 7.0 mph 15.0 mph 51% 0.00 in
15:32 84.9 °F 64.2 °F 29.70 in South 5.0 mph 12.0 mph 50% 0.00 in
15:37 85.2 °F 65.6 °F 29.70 in South 8.0 mph 18.0 mph 52% 0.00 in
15:42 85.3 °F 66.2 °F 29.69 in SSW 8.0 mph 14.0 mph 53% 0.00 in
15:44 85.3 °F 66.2 °F 29.69 in SSW 8.0 mph 14.0 mph 53% 0.00 in
15:49 85.6 °F 67.1 °F 29.68 in SSW 6.0 mph 9.0 mph 54% 0.00 in
15:54 85.8 °F 66.2 °F 29.68 in SE 6.0 mph 13.0 mph 52% 0.00 in
15:59 85.5 °F 65.3 °F 29.67 in SSE 9.0 mph 13.0 mph 51% 0.00 in
16:04 85.5 °F 65.9 °F 29.67 in SE 8.0 mph 12.0 mph 52% 0.00 in
16:09 85.2 °F 66.2 °F 29.66 in SSE 13.0 mph 13.0 mph 53% 0.00 in
16:14 85.1 °F 66.1 °F 29.65 in SSE 8.0 mph 11.0 mph 53% 0.00 in
16:19 85.0 °F 66.5 °F 29.65 in South 7.0 mph 10.0 mph 54% 0.00 in
16:22 84.9 °F 65.9 °F 29.65 in SE 6.0 mph 12.0 mph 53% 0.00 in
16:27 84.9 °F 65.9 °F 29.65 in SSW 6.0 mph 10.0 mph 53% 0.00 in
16:29 84.8 °F 66.3 °F 29.65 in SW 11.0 mph 11.0 mph 54% 0.00 in
16:34 85.2 °F 66.2 °F 29.65 in SSW 5.0 mph 8.0 mph 53% 0.00 in
16:39 85.0 °F 65.4 °F 29.65 in SW 3.0 mph 9.0 mph 52% 0.00 in
16:44 84.7 °F 65.7 °F 29.66 in SSE 4.0 mph 11.0 mph 53% 0.00 in
16:49 84.3 °F 65.9 °F 29.66 in SSW 7.0 mph 10.0 mph 54% 0.00 in
16:54 84.1 °F 66.2 °F 29.67 in WSW 9.0 mph 10.0 mph 55% 0.00 in
16:59 84.3 °F 66.9 °F 29.67 in SW 9.0 mph 12.0 mph 56% 0.00 in
17:04 84.6 °F 66.7 °F 29.67 in WSW 10.0 mph 11.0 mph 55% 0.00 in
17:09 84.8 °F 66.3 °F 29.67 in WSW 9.0 mph 13.0 mph 54% 0.00 in
17:14 85.1 °F 65.5 °F 29.66 in SW 13.0 mph 13.0 mph 52% 0.00 in
17:19 85.4 °F 66.3 °F 29.66 in SE 8.0 mph 11.0 mph 53% 0.00 in
17:24 85.4 °F 66.3 °F 29.66 in SW 10.0 mph 11.0 mph 53% 0.00 in
17:29 85.3 °F 66.2 °F 29.65 in South 10.0 mph 10.0 mph 53% 0.00 in
17:34 85.0 °F 65.4 °F 29.66 in SSW 5.0 mph 12.0 mph 52% 0.00 in
17:39 84.8 °F 66.8 °F 29.65 in SE 4.0 mph 8.0 mph 55% 0.00 in
17:44 84.4 °F 66.5 °F 29.65 in South 8.0 mph 13.0 mph 55% 0.00 in
17:50 83.9 °F 66.5 °F 29.65 in South 11.0 mph 13.0 mph 56% 0.00 in
17:55 83.6 °F 66.3 °F 29.65 in South 8.0 mph 12.0 mph 56% 0.00 in
18:00 83.3 °F 66.0 °F 29.65 in SSE 6.0 mph 9.0 mph 56% 0.00 in
18:05 83.0 °F 65.7 °F 29.65 in South 7.0 mph 10.0 mph 56% 0.00 in
18:10 82.7 °F 66.4 °F 29.66 in SSE 8.0 mph 9.0 mph 58% 0.00 in
18:15 82.5 °F 66.2 °F 29.66 in South 9.0 mph 10.0 mph 58% 0.00 in
18:20 82.3 °F 66.1 °F 29.65 in SSW 8.0 mph 12.0 mph 58% 0.00 in
18:25 82.1 °F 66.4 °F 29.65 in SSW 6.0 mph 8.0 mph 59% 0.00 in
18:30 81.9 °F 66.7 °F 29.65 in SW 6.0 mph 10.0 mph 60% 0.00 in
18:35 81.7 °F 66.9 °F 29.66 in SSW 6.0 mph 8.0 mph 61% 0.00 in
18:40 81.6 °F 67.3 °F 29.66 in SSW 1.0 mph 7.0 mph 62% 0.00 in
18:45 81.5 °F 67.7 °F 29.66 in SW 5.0 mph 8.0 mph 63% 0.00 in
18:50 81.2 °F 67.4 °F 29.66 in SSE 7.0 mph 17.0 mph 63% 0.00 in
18:55 80.7 °F 66.0 °F 29.66 in SSE 10.0 mph 18.0 mph 61% 0.00 in
19:00 80.3 °F 66.1 °F 29.67 in SSE 5.0 mph 14.0 mph 62% 0.00 in
19:05 79.9 °F 65.7 °F 29.65 in SW 5.0 mph 12.0 mph 62% 0.00 in
19:10 79.6 °F 65.9 °F 29.66 in SSW 5.0 mph 12.0 mph 63% 0.00 in
19:15 79.2 °F 66.4 °F 29.67 in SSW 11.0 mph 14.0 mph 65% 0.00 in
19:20 78.4 °F 67.0 °F 29.67 in SW 9.0 mph 13.0 mph 68% 0.00 in
19:25 77.6 °F 67.5 °F 29.67 in South 4.0 mph 12.0 mph 71% 0.00 in
19:30 77.3 °F 67.2 °F 29.67 in SSE 7.0 mph 10.0 mph 71% 0.00 in
19:35 77.1 °F 67.0 °F 29.67 in SSW 7.0 mph 8.0 mph 71% 0.00 in
19:40 77.0 °F 67.3 °F 29.67 in SSE 3.0 mph 7.0 mph 72% 0.00 in
19:45 76.8 °F 67.1 °F 29.67 in South 5.0 mph 7.0 mph 72% 0.00 in
19:50 76.5 °F 67.2 °F 29.68 in SW 8.0 mph 10.0 mph 73% 0.00 in
19:55 76.2 °F 66.9 °F 29.68 in SSW 7.0 mph 10.0 mph 73% 0.00 in
20:00 76.1 °F 66.0 °F 29.69 in SSW 6.0 mph 16.0 mph 71% 0.00 in
20:05 76.1 °F 65.6 °F 29.70 in WSW 12.0 mph 13.0 mph 70% 0.00 in
20:10 74.7 °F 63.0 °F 29.71 in WSW 10.0 mph 20.0 mph 67% 0.00 in
20:15 73.2 °F 62.4 °F 29.71 in SW 11.0 mph 17.0 mph 69% 0.00 in
20:20 72.1 °F 62.2 °F 29.71 in West 6.0 mph 20.0 mph 71% 0.00 in
20:25 71.0 °F 61.9 °F 29.71 in WSW 9.0 mph 16.0 mph 73% 0.00 in
20:30 70.3 °F 61.6 °F 29.72 in WSW 8.0 mph 11.0 mph 74% 0.00 in
20:35 69.9 °F 61.6 °F 29.72 in West 7.0 mph 11.0 mph 75% 0.00 in
20:40 69.7 °F 61.4 °F 29.72 in West 3.0 mph 6.0 mph 75% 0.00 in
20:45 69.5 °F 61.2 °F 29.72 in WSW 5.0 mph 9.0 mph 75% 0.00 in
20:50 69.4 °F 61.5 °F 29.73 in SW 4.0 mph 7.0 mph 76% 0.00 in
20:55 69.4 °F 61.5 °F 29.73 in SSW 6.0 mph 8.0 mph 76% 0.00 in
21:00 69.3 °F 61.4 °F 29.73 in South 2.0 mph 5.0 mph 76% 0.00 in
21:05 69.2 °F 61.3 °F 29.73 in SW 8.0 mph 12.0 mph 76% 0.00 in
21:10 69.0 °F 61.5 °F 29.72 in SW 5.0 mph 7.0 mph 77% 0.00 in
21:15 68.8 °F 61.7 °F 29.72 in SW 8.0 mph 9.0 mph 78% 0.00 in
21:20 68.8 °F 61.3 °F 29.72 in SW 6.0 mph 11.0 mph 77% 0.00 in
21:25 68.9 °F 61.8 °F 29.73 in SSW 4.0 mph 7.0 mph 78% 0.00 in
21:30 68.7 °F 61.9 °F 29.73 in SW 4.0 mph 5.0 mph 79% 0.00 in
21:35 68.4 °F 62.0 °F 29.73 in SW 2.0 mph 3.0 mph 80% 0.00 in
21:40 68.1 °F 62.1 °F 29.72 in SW 2.0 mph 3.0 mph 81% 0.00 in
21:45 67.8 °F 61.8 °F 29.71 in SW 3.0 mph 5.0 mph 81% 0.00 in
21:50 67.6 °F 61.9 °F 29.71 in SSW 2.0 mph 4.0 mph 82% 0.00 in
21:56 67.4 °F 62.1 °F 29.71 in SE 1.0 mph 2.0 mph 83% 0.00 in
22:01 67.2 °F 61.9 °F 29.71 in SSE 2.0 mph 2.0 mph 83% 0.00 in
22:06 67.0 °F 62.3 °F 29.71 in SE 2.0 mph 2.0 mph 85% 0.00 in
22:11 66.7 °F 62.4 °F 29.71 in ESE 2.0 mph 2.0 mph 86% 0.00 in
22:16 66.6 °F 62.6 °F 29.71 in ESE 1.0 mph 2.0 mph 87% 0.00 in
22:21 66.4 °F 62.4 °F 29.72 in South 1.0 mph 2.0 mph 87% 0.00 in
22:26 66.3 °F 62.3 °F 29.71 in SE 1.0 mph 3.0 mph 87% 0.00 in
22:31 66.3 °F 62.3 °F 29.71 in Calm   2.0 mph 87% 0.00 in
22:36 66.2 °F 62.2 °F 29.72 in SSE 2.0 mph 4.0 mph 87% 0.00 in
22:41 66.2 °F 62.5 °F 29.72 in SSE 4.0 mph 7.0 mph 88% 0.00 in
22:46 66.1 °F 62.5 °F 29.71 in SE 2.0 mph 5.0 mph 88% 0.00 in
22:51 66.0 °F 62.7 °F 29.71 in SE 3.0 mph 6.0 mph 89% 0.00 in
22:56 65.9 °F 62.6 °F 29.71 in ESE 4.0 mph 5.0 mph 89% 0.00 in
23:01 65.8 °F 62.5 °F 29.71 in South 2.0 mph 3.0 mph 89% 0.00 in
23:06 65.8 °F 62.5 °F 29.72 in West 2.0 mph 2.0 mph 89% 0.00 in
23:11 65.6 °F 62.6 °F 29.72 in WSW 2.0 mph 2.0 mph 90% 0.00 in
23:16 65.6 °F 62.3 °F 29.72 in SSW 1.0 mph 5.0 mph 89% 0.00 in
23:21 65.5 °F 62.2 °F 29.73 in SSE 2.0 mph 3.0 mph 89% 0.00 in
23:26 65.4 °F 62.1 °F 29.72 in SE 5.0 mph 5.0 mph 89% 0.00 in
23:31 65.3 °F 62.3 °F 29.72 in SE 4.0 mph 6.0 mph 90% 0.00 in
23:36 65.5 °F 62.5 °F 29.71 in SE 4.0 mph 7.0 mph 90% 0.00 in
23:41 65.5 °F 62.5 °F 29.71 in SSE 3.0 mph 4.0 mph 90% 0.00 in
23:46 65.3 °F 62.6 °F 29.71 in South 3.0 mph 5.0 mph 91% 0.00 in
23:51 65.3 °F 62.6 °F 29.70 in SSE 6.0 mph 7.0 mph 91% 0.00 in
23:56 65.4 °F 62.7 °F 29.70 in SE 3.0 mph 8.0 mph 91% 0.00 in
Compliments of Weather Underground